createdAt,value
2023-05-02T00:01:36.378Z,95386.78
2023-05-02T00:04:39.718Z,95390.22
2023-05-02T00:07:42.868Z,95390.22
2023-05-02T00:10:45.999Z,95396.34
2023-05-02T00:13:50.568Z,95392.41
2023-05-02T00:16:53.734Z,95392.09
2023-05-02T00:19:57.043Z,95379.19
2023-05-02T00:23:00.253Z,95392.69
2023-05-02T00:26:03.743Z,95393.78
2023-05-02T00:29:08.404Z,95396.44
2023-05-02T00:32:11.868Z,95397.53
2023-05-02T00:35:14.938Z,95410.56
2023-05-02T00:38:18.014Z,95405.53
2023-05-02T00:41:21.096Z,95409.28
2023-05-02T00:44:25.503Z,95416.47
2023-05-02T00:47:28.540Z,95425.25
2023-05-02T00:50:34.015Z,95417.84
2023-05-02T00:53:37.278Z,95424.75
2023-05-02T00:56:40.405Z,95421.00
2023-05-02T00:59:45.110Z,95421.00
2023-05-02T01:02:54.414Z,95416.78
2023-05-02T01:06:07.058Z,95418.66
2023-05-02T01:09:23.498Z,95401.88
2023-05-02T01:12:30.056Z,95407.19
2023-05-02T01:15:36.429Z,95390.09
2023-05-02T01:18:43.745Z,95409.34
2023-05-02T01:21:48.160Z,95406.69
2023-05-02T01:25:01.494Z,95407.47
2023-05-02T01:28:17.256Z,95400.28
2023-05-02T01:31:25.056Z,95400.56
2023-05-02T01:34:30.044Z,95391.00
2023-05-02T01:37:35.118Z,95401.66
2023-05-02T01:40:39.497Z,95382.13
2023-05-02T01:43:43.949Z,95399.28
2023-05-02T01:46:49.827Z,95419.22
2023-05-02T01:49:53.255Z,95396.22
2023-05-02T01:52:59.055Z,95413.88
2023-05-02T01:56:02.937Z,95420.78
2023-05-02T01:59:09.303Z,95420.28
2023-05-02T02:02:15.720Z,95415.56
2023-05-02T02:05:20.453Z,95407.56
2023-05-02T02:08:23.672Z,95408.06
2023-05-02T02:11:34.998Z,95406.00
2023-05-02T02:14:41.524Z,95412.59
2023-05-02T02:17:50.521Z,95411.81
2023-05-02T02:20:55.388Z,95417.44
2023-05-02T02:24:03.165Z,95415.25
2023-05-02T02:27:06.179Z,95414.75
2023-05-02T02:30:10.355Z,95397.13
2023-05-02T02:33:14.932Z,95408.34
2023-05-02T02:36:25.828Z,95413.69
2023-05-02T02:39:41.451Z,95419.00
2023-05-02T02:42:49.321Z,95413.78
2023-05-02T02:46:11.474Z,95418.03
2023-05-02T02:49:30.474Z,95412.09
2023-05-02T02:52:41.629Z,95414.75
2023-05-02T02:55:49.634Z,95417.72
2023-05-02T02:58:58.774Z,95416.94
2023-05-02T03:02:07.166Z,95397.97
2023-05-02T03:05:12.918Z,95420.38
2023-05-02T03:08:16.338Z,95434.00
2023-05-02T03:11:19.308Z,95419.31
2023-05-02T03:14:22.439Z,95425.72
2023-05-02T03:17:26.389Z,95442.16
2023-05-02T03:20:30.865Z,95433.75
2023-05-02T03:23:33.904Z,95442.91
2023-05-02T03:26:36.944Z,95447.72
2023-05-02T03:29:39.972Z,95433.59
2023-05-02T03:32:43.203Z,95455.50
2023-05-02T03:35:47.740Z,95461.03
2023-05-02T03:38:50.960Z,95454.34
2023-05-02T03:41:54.271Z,95453.28
2023-05-02T03:44:57.479Z,95454.59
2023-05-02T03:48:00.946Z,95461.63
2023-05-02T03:51:07.809Z,95460.84
2023-05-02T03:54:11.040Z,95464.63
2023-05-02T03:57:14.023Z,95458.53
2023-05-02T04:00:17.060Z,95456.19
2023-05-02T04:03:20.109Z,95454.09
2023-05-02T04:06:24.691Z,95456.88
2023-05-02T04:09:27.699Z,95462.59
2023-05-02T04:12:30.890Z,95466.00
2023-05-02T04:15:35.075Z,95462.16
2023-05-02T04:18:38.316Z,95467.78
2023-05-02T04:21:42.792Z,95463.66
2023-05-02T04:24:45.798Z,95465.66
2023-05-02T04:27:48.880Z,95466.44
2023-05-02T04:30:52.188Z,95469.78
2023-05-02T04:33:55.269Z,95471.75
2023-05-02T04:36:59.814Z,95482.00
2023-05-02T04:40:03.784Z,95467.50
2023-05-02T04:43:06.758Z,95477.50
2023-05-02T04:46:09.784Z,95473.19
2023-05-02T04:49:12.877Z,95485.06
2023-05-02T04:52:17.319Z,95483.22
2023-05-02T04:55:20.764Z,95482.72
2023-05-02T04:58:23.865Z,95485.06
2023-05-02T05:01:28.031Z,95481.53
2023-05-02T05:04:31.178Z,95483.91
2023-05-02T05:07:35.747Z,95486.03
2023-05-02T05:10:40.473Z,95480.88
2023-05-02T05:13:43.814Z,95483.25
2023-05-02T05:16:46.973Z,95482.00
2023-05-02T05:19:50.200Z,95481.94
2023-05-02T05:22:54.675Z,95478.94
2023-05-02T05:25:57.996Z,95474.91
2023-05-02T05:29:01.024Z,95483.59
2023-05-02T05:32:04.097Z,95489.94
2023-05-02T05:35:07.905Z,95493.06
2023-05-02T05:38:12.437Z,95493.84
2023-05-02T05:41:15.553Z,95491.81
2023-05-02T05:44:18.788Z,95494.56
2023-05-02T05:47:22.763Z,95476.31
2023-05-02T05:50:25.918Z,95490.09
2023-05-02T05:53:30.384Z,95492.41
2023-05-02T05:56:33.465Z,95496.56
2023-05-02T05:59:36.832Z,95491.94
2023-05-02T06:02:40.013Z,95499.09
2023-05-02T06:05:43.409Z,95499.00
2023-05-02T06:08:47.824Z,95502.66
2023-05-02T06:11:51.050Z,95512.38
2023-05-02T06:14:54.203Z,95496.38
2023-05-02T06:17:57.241Z,95499.66
2023-05-02T06:21:05.124Z,95490.03
2023-05-02T06:24:09.629Z,95484.97
2023-05-02T06:27:12.610Z,95497.63
2023-05-02T06:30:15.833Z,95495.06
2023-05-02T06:33:18.908Z,95493.72
2023-05-02T06:36:21.936Z,95484.16
2023-05-02T06:39:26.605Z,95483.13
2023-05-02T06:42:29.710Z,95473.47
2023-05-02T06:45:32.772Z,95487.09
2023-05-02T06:48:37.045Z,95485.34
2023-05-02T06:51:40.054Z,95482.88
2023-05-02T06:54:44.444Z,95463.53
2023-05-02T06:57:47.492Z,95478.63
2023-05-02T07:00:50.756Z,95478.94
2023-05-02T07:03:54.489Z,95476.06
2023-05-02T07:06:57.624Z,95465.31
2023-05-02T07:10:02.173Z,95475.06
2023-05-02T07:13:05.412Z,95479.31
2023-05-02T07:16:09.208Z,95471.81
2023-05-02T07:19:12.312Z,95480.31
2023-05-02T07:22:16.377Z,95485.44
2023-05-02T07:25:21.287Z,95480.81
2023-05-02T07:28:24.258Z,95474.59
2023-05-02T07:31:27.312Z,95481.38
2023-05-02T07:34:31.075Z,95474.88
2023-05-02T07:37:35.426Z,95473.38
2023-05-02T07:40:39.961Z,95473.69
2023-05-02T07:43:43.003Z,95484.28
2023-05-02T07:46:46.242Z,95489.69
2023-05-02T07:49:52.412Z,95460.34
2023-05-02T07:52:56.350Z,95478.13
2023-05-02T07:56:01.022Z,95475.19
2023-05-02T07:59:05.586Z,95487.66
2023-05-02T08:02:08.974Z,95483.78
2023-05-02T08:05:12.209Z,95470.94
2023-05-02T08:08:15.399Z,95481.03
2023-05-02T08:11:21.862Z,95476.69
2023-05-02T08:14:25.559Z,95481.31
2023-05-02T08:17:29.283Z,95468.56
2023-05-02T08:20:32.410Z,95465.81
2023-05-02T08:23:35.993Z,95474.59
2023-05-02T08:26:40.372Z,95464.03
2023-05-02T08:29:43.486Z,95470.06
2023-05-02T08:32:47.327Z,95475.19
2023-05-02T08:35:50.463Z,95456.44
2023-05-02T08:38:53.569Z,95459.78
2023-05-02T08:41:58.147Z,95464.91
2023-05-02T08:45:02.274Z,95467.69
2023-05-02T08:48:10.494Z,95476.34
2023-05-02T08:51:15.841Z,95465.00
2023-05-02T08:54:21.323Z,95465.59
2023-05-02T08:57:26.878Z,95459.19
2023-05-02T09:00:30.823Z,95483.69
2023-05-02T09:03:35.436Z,95446.75
2023-05-02T09:06:38.794Z,95450.69
2023-05-02T09:09:41.964Z,95458.88
2023-05-02T09:12:46.526Z,95456.22
2023-05-02T09:15:59.763Z,95445.34
2023-05-02T09:19:03.007Z,95438.72
2023-05-02T09:22:06.031Z,95450.59
2023-05-02T09:25:09.982Z,95443.69
2023-05-02T09:28:14.442Z,95442.59
2023-05-02T09:31:27.010Z,95442.06
2023-05-02T09:34:37.436Z,95446.75
2023-05-02T09:37:40.798Z,95432.13
2023-05-02T09:40:55.022Z,95435.38
2023-05-02T09:43:59.582Z,95435.66
2023-05-02T09:47:02.850Z,95443.38
2023-05-02T09:50:09.249Z,95432.22
2023-05-02T09:53:12.310Z,95425.00
2023-05-02T09:56:15.728Z,95391.63
2023-05-02T09:59:20.439Z,95407.81
2023-05-02T10:02:24.621Z,95409.28
2023-05-02T10:05:33.858Z,95416.50
2023-05-02T10:08:37.823Z,95414.13
2023-05-02T10:11:43.149Z,95400.91
2023-05-02T10:14:51.980Z,95403.44
2023-05-02T10:17:59.551Z,95399.31
2023-05-02T10:21:09.309Z,95400.31
2023-05-02T10:24:13.552Z,95392.00
2023-05-02T10:27:16.711Z,95393.00
2023-05-02T10:30:22.152Z,95403.16
2023-05-02T10:33:25.176Z,95392.78
2023-05-02T10:36:29.333Z,95378.16
2023-05-02T10:39:33.649Z,95378.56
2023-05-02T10:42:39.985Z,95386.09
2023-05-02T10:45:44.483Z,95383.50
2023-05-02T10:49:01.817Z,95377.38
2023-05-02T10:52:27.022Z,95362.59
2023-05-02T10:55:31.409Z,95363.69
2023-05-02T10:58:34.573Z,95366.53
2023-05-02T11:01:40.199Z,95376.28
2023-05-02T11:05:04.443Z,95355.38
2023-05-02T11:08:32.973Z,95364.53
2023-05-02T11:11:43.722Z,95373.84
2023-05-02T11:14:48.771Z,95360.78
2023-05-02T11:18:02.755Z,95367.81
2023-05-02T11:21:28.921Z,95360.59
2023-05-02T11:24:42.218Z,95339.81
2023-05-02T11:27:47.767Z,95346.47
2023-05-02T11:30:51.162Z,95366.72
2023-05-02T11:33:59.290Z,95358.22
2023-05-02T11:37:11.708Z,95353.50
2023-05-02T11:40:16.039Z,95348.47
2023-05-02T11:43:21.504Z,95342.34
2023-05-02T11:46:24.677Z,95343.75
2023-05-02T11:49:29.254Z,95341.38
2023-05-02T11:52:38.076Z,95336.53
2023-05-02T11:55:46.909Z,95342.34
2023-05-02T11:59:00.057Z,95324.50
2023-05-02T12:02:03.210Z,95329.63
2023-05-02T12:05:09.976Z,95329.91
2023-05-02T12:08:20.442Z,95313.72
2023-05-02T12:11:24.756Z,95308.91
2023-05-02T12:14:32.681Z,95309.69
2023-05-02T12:17:38.890Z,95287.66
2023-05-02T12:20:44.211Z,95296.53
2023-05-02T12:23:47.975Z,95293.88
2023-05-02T12:26:53.040Z,95300.78
2023-05-02T12:29:57.534Z,95301.38
2023-05-02T12:33:01.977Z,95307.00
2023-05-02T12:36:10.972Z,95263.13
2023-05-02T12:39:14.073Z,95287.84
2023-05-02T12:42:18.937Z,95274.50
2023-05-02T12:45:22.189Z,95268.38
2023-05-02T12:48:27.076Z,95268.91
2023-05-02T12:51:33.128Z,95263.06
2023-05-02T12:54:36.196Z,95264.53
2023-05-02T12:57:39.337Z,95264.94
2023-05-02T13:00:45.597Z,95252.38
2023-05-02T13:03:52.474Z,95269.59
2023-05-02T13:06:57.023Z,95280.44
2023-05-02T13:10:00.725Z,95277.28
2023-05-02T13:13:04.105Z,95274.94
2023-05-02T13:16:08.081Z,95265.66
2023-05-02T13:19:11.626Z,95275.34
2023-05-02T13:22:16.534Z,95270.69
2023-05-02T13:25:19.687Z,95263.47
2023-05-02T13:28:22.808Z,95253.44
2023-05-02T13:31:26.068Z,95277.97
2023-05-02T13:34:29.223Z,95272.75
2023-05-02T13:37:33.700Z,95263.78
2023-05-02T13:40:36.926Z,95269.13
2023-05-02T13:43:40.998Z,95273.00
2023-05-02T13:46:44.493Z,95268.63
2023-05-02T13:49:47.671Z,95268.16
2023-05-02T13:52:52.151Z,95266.56
2023-05-02T13:55:55.204Z,95260.72
2023-05-02T13:58:58.306Z,95250.59
2023-05-02T14:02:01.465Z,95260.16
2023-05-02T14:05:04.668Z,95258.28
2023-05-02T14:08:09.194Z,95264.38
2023-05-02T14:11:12.607Z,95267.94
2023-05-02T14:14:15.772Z,95268.06
2023-05-02T14:17:18.838Z,95252.50
2023-05-02T14:20:23.515Z,95257.53
2023-05-02T14:23:28.460Z,95257.91
2023-05-02T14:26:31.623Z,95250.22
2023-05-02T14:29:34.682Z,95252.88
2023-05-02T14:32:37.849Z,95254.75
2023-05-02T14:35:40.919Z,95251.78
2023-05-02T14:38:45.792Z,95246.31
2023-05-02T14:41:48.916Z,95242.34
2023-05-02T14:44:52.387Z,95253.50
2023-05-02T14:47:56.020Z,95254.81
2023-05-02T14:51:01.316Z,95252.41
2023-05-02T14:54:06.752Z,95262.81
2023-05-02T14:57:09.865Z,95265.84
2023-05-02T15:00:13.910Z,95260.00
2023-05-02T15:03:17.080Z,95258.97
2023-05-02T15:06:20.343Z,95265.66
2023-05-02T15:09:26.655Z,95264.28
2023-05-02T15:12:29.843Z,95256.75
2023-05-02T15:15:33.003Z,95262.03
2023-05-02T15:18:36.037Z,95254.59
2023-05-02T15:21:39.181Z,95257.56
2023-05-02T15:24:43.629Z,95242.63
2023-05-02T15:27:46.819Z,95253.19
2023-05-02T15:30:50.339Z,95257.53
2023-05-02T15:33:53.493Z,95251.66
2023-05-02T15:36:57.973Z,95247.78
2023-05-02T15:40:04.110Z,95247.06
2023-05-02T15:43:07.455Z,95253.97
2023-05-02T15:46:11.196Z,95263.75
2023-05-02T15:49:14.353Z,95249.19
2023-05-02T15:52:17.443Z,95259.16
2023-05-02T15:55:21.961Z,95260.69
2023-05-02T15:58:25.142Z,95245.88
2023-05-02T16:01:28.205Z,95247.66
2023-05-02T16:04:32.227Z,95239.22
2023-05-02T16:07:35.257Z,95253.47
2023-05-02T16:10:40.474Z,95260.28
2023-05-02T16:13:43.454Z,95259.06
2023-05-02T16:16:46.420Z,95259.06
2023-05-02T16:19:49.463Z,95254.53
2023-05-02T16:22:52.567Z,95248.06
2023-05-02T16:25:59.899Z,95260.66
2023-05-02T16:29:03.101Z,95273.19
2023-05-02T16:32:08.105Z,95273.50
2023-05-02T16:35:13.371Z,95276.78
2023-05-02T16:38:16.486Z,95276.00
2023-05-02T16:41:21.628Z,95281.81
2023-05-02T16:44:24.748Z,95276.47
2023-05-02T16:47:28.058Z,95254.69
2023-05-02T16:50:31.110Z,95283.97
2023-05-02T16:53:34.186Z,95278.47
2023-05-02T16:56:40.205Z,95289.03
2023-05-02T16:59:44.302Z,95303.91
2023-05-02T17:02:48.058Z,95298.59
2023-05-02T17:05:51.214Z,95295.44
2023-05-02T17:08:54.249Z,95301.97
2023-05-02T17:11:58.752Z,95303.03
2023-05-02T17:15:03.593Z,95301.00
2023-05-02T17:18:07.414Z,95311.03
2023-05-02T17:21:10.680Z,95304.34
2023-05-02T17:24:13.728Z,95312.63
2023-05-02T17:27:18.168Z,95316.69
2023-05-02T17:30:21.447Z,95312.13
2023-05-02T17:33:26.456Z,95325.16
2023-05-02T17:36:30.101Z,95331.28
2023-05-02T17:39:33.668Z,95320.44
2023-05-02T17:42:38.105Z,95321.41
2023-05-02T17:45:41.770Z,95333.94
2023-05-02T17:48:45.119Z,95333.94
2023-05-02T17:51:48.147Z,95341.69
2023-05-02T17:54:51.182Z,95343.66
2023-05-02T17:57:55.680Z,95336.06
2023-05-02T18:00:59.196Z,95337.94
2023-05-02T18:04:04.199Z,95342.00
2023-05-02T18:07:07.407Z,95345.75
2023-05-02T18:10:10.938Z,95346.31
2023-05-02T18:13:15.394Z,95339.13
2023-05-02T18:16:18.555Z,95347.63
2023-05-02T18:19:22.140Z,95360.44
2023-05-02T18:22:25.355Z,95310.03
2023-05-02T18:25:28.397Z,95352.44
2023-05-02T18:28:34.264Z,95343.97
2023-05-02T18:31:40.437Z,95344.56
2023-05-02T18:34:43.706Z,95348.03
2023-05-02T18:37:46.764Z,95335.78
2023-05-02T18:40:49.871Z,95357.09
2023-05-02T18:43:54.722Z,95351.09
2023-05-02T18:46:58.667Z,95348.25
2023-05-02T18:50:01.890Z,95356.31
2023-05-02T18:53:05.324Z,95352.88
2023-05-02T18:56:14.444Z,95339.34
2023-05-02T18:59:19.715Z,95341.34
2023-05-02T19:02:23.128Z,95343.69
2023-05-02T19:05:27.636Z,95345.56
2023-05-02T19:08:31.342Z,95338.97
2023-05-02T19:11:34.421Z,95342.72
2023-05-02T19:14:39.734Z,95345.94
2023-05-02T19:17:44.455Z,95331.53
2023-05-02T19:20:47.680Z,95342.56
2023-05-02T19:23:52.782Z,95317.22
2023-05-02T19:26:57.925Z,95337.75
2023-05-02T19:30:02.462Z,95335.38
2023-05-02T19:33:05.983Z,95332.53
2023-05-02T19:36:09.269Z,95335.19
2023-05-02T19:39:13.316Z,95337.34
2023-05-02T19:42:16.392Z,95343.47
2023-05-02T19:45:20.955Z,95340.03
2023-05-02T19:48:24.170Z,95344.63
2023-05-02T19:51:28.224Z,95352.13
2023-05-02T19:54:33.319Z,95346.91
2023-05-02T19:57:36.704Z,95345.63
2023-05-02T20:00:42.314Z,95343.25
2023-05-02T20:03:45.446Z,95344.66
2023-05-02T20:06:48.747Z,95341.09
2023-05-02T20:09:51.850Z,95352.22
2023-05-02T20:12:54.804Z,95350.97
2023-05-02T20:15:59.247Z,95348.38
2023-05-02T20:19:02.517Z,95341.56
2023-05-02T20:22:05.579Z,95341.84
2023-05-02T20:25:10.425Z,95355.06
2023-05-02T20:28:13.688Z,95365.72
2023-05-02T20:31:18.147Z,95364.25
2023-05-02T20:34:21.286Z,95365.53
2023-05-02T20:37:25.689Z,95373.22
2023-05-02T20:40:28.874Z,95357.03
2023-05-02T20:43:35.427Z,95362.16
2023-05-02T20:46:39.979Z,95372.22
2023-05-02T20:49:43.135Z,95370.44
2023-05-02T20:52:46.209Z,95378.16
2023-05-02T20:55:49.248Z,95373.59
2023-05-02T20:58:52.233Z,95376.84
2023-05-02T21:01:56.756Z,95370.44
2023-05-02T21:04:59.897Z,95373.19
2023-05-02T21:08:02.938Z,95383.44
2023-05-02T21:11:13.619Z,95388.47
2023-05-02T21:14:17.198Z,95382.25
2023-05-02T21:17:21.756Z,95395.56
2023-05-02T21:20:27.359Z,95397.44
2023-05-02T21:23:30.415Z,95393.28
2023-05-02T21:26:33.490Z,95396.59
2023-05-02T21:29:36.577Z,95405.31
2023-05-02T21:32:41.336Z,95401.13
2023-05-02T21:35:44.473Z,95410.19
2023-05-02T21:38:47.530Z,95414.31
2023-05-02T21:41:50.545Z,95412.50
2023-05-02T21:44:53.583Z,95414.59
2023-05-02T21:47:58.205Z,95416.50
2023-05-02T21:51:01.504Z,95416.25
2023-05-02T21:54:04.598Z,95418.84
2023-05-02T21:57:07.736Z,95421.81
2023-05-02T22:00:13.383Z,95416.78
2023-05-02T22:03:17.845Z,95386.56
2023-05-02T22:06:21.018Z,95411.16
2023-05-02T22:09:24.143Z,95405.38
2023-05-02T22:12:28.077Z,95399.06
2023-05-02T22:15:31.426Z,95405.88
2023-05-02T22:18:36.283Z,95402.72
2023-05-02T22:21:39.306Z,95412.78
2023-05-02T22:24:42.399Z,95419.03
2023-05-02T22:27:45.563Z,95406.03
2023-05-02T22:30:48.683Z,95410.78
2023-05-02T22:33:53.095Z,95421.00
2023-05-02T22:36:56.187Z,95414.66
2023-05-02T22:39:59.342Z,95422.00
2023-05-02T22:43:02.842Z,95411.34
2023-05-02T22:46:06.012Z,95403.72
2023-05-02T22:49:10.702Z,95423.13
2023-05-02T22:52:17.075Z,95423.00
2023-05-02T22:55:20.106Z,95418.84
2023-05-02T22:58:23.219Z,95439.31
2023-05-02T23:01:26.389Z,95421.41
2023-05-02T23:04:32.798Z,95416.97
2023-05-02T23:07:36.034Z,95427.09
2023-05-02T23:10:39.083Z,95414.16
2023-05-02T23:13:42.226Z,95417.09
2023-05-02T23:16:45.245Z,95415.09
2023-05-02T23:19:50.126Z,95415.88
2023-05-02T23:22:53.217Z,95396.91
2023-05-02T23:25:56.263Z,95426.25
2023-05-02T23:28:59.355Z,95419.34
2023-05-02T23:32:02.630Z,95418.25
2023-05-02T23:35:08.286Z,95417.25
2023-05-02T23:38:11.456Z,95407.91
2023-05-02T23:41:14.654Z,95414.31
2023-05-02T23:44:17.796Z,95405.75
2023-05-02T23:47:22.983Z,95413.44
2023-05-02T23:50:27.553Z,95413.16
2023-05-02T23:53:30.693Z,95406.66
2023-05-02T23:56:33.782Z,95420.41
2023-05-02T23:59:36.970Z,95393.44
